• Join FlightAware (Why Join?)
  • Login
  • US Flag 
04:05AM EDT


 

Airport Tracker/Info


-or-


 

Live Flight TrackerFlight Track Log ✈ N779NC ✈ 30-Jun-2013 ✈ KLIT - KATL

Flight Track Log - Related Links

Times and Time Zones

All times are in EDT time to prevent confusion due to time zone crossing. See the N779NC flight status page for this flight to view local times or setup timezone preferences in your user account.

Time Position Orientation Groundspeed Altitude Reporting Facility
EDT Latitude Longitude Course Direction KTS MPH feet Rate Location/Type
12:26PM 34.7411 -92.2147 90° East 139 160 1,200  Level Memphis Center
12:28PM 34.6833 -92.0925 90° East  Level FlightAware Approximate
12:28PM 34.7308 -92.0553 90° East 247 284 4,000  Level Memphis Center
12:29PM 34.7258 -91.9742 94° East 274 315 6,100 2,040 Climbing Memphis Center
12:30PM 34.7398 -91.7279 78° East  Level FlightAware Approximate
12:31PM 34.7617 -91.5969 78° East  Level FlightAware Approximate
12:31PM 34.7316 -91.8162 87° East  Level FlightAware Approximate
12:31PM 34.7467 -91.8003 87° East 279 321 9,700  Level Memphis Center
12:32PM 34.7833 -91.4658 90° East  Level FlightAware Approximate
12:32PM 34.7561 -91.7069 83° East 294 338 11,400  Level Memphis Center
12:33PM 34.7614 -91.5933 87° East 321 369 12,400 1,200 Climbing Memphis Center
12:34PM 34.7708 -91.4694 85° East 360 414 13,900 1,500 Climbing Memphis Center
12:35PM 34.7844 -91.3306 83° East 374 430 15,500 1,500 Climbing Memphis Center
12:36PM 34.8000 -91.1992 82° East 387 445 16,900 1,380 Climbing Memphis Center
12:37PM 34.8322 -91.0656 74° East 392 451 18,300 1,320 Climbing Memphis Center
12:38PM 34.8581 -90.9292 77° East 405 466 19,600 1,200 Climbing Memphis Center
12:39PM 34.8878 -90.7900 75° East 416 479 20,800 1,200 Climbing Memphis Center
12:40PM 34.9194 -90.6483 75° East 422 486 22,000 1,200 Climbing Memphis Center
12:41PM 34.9489 -90.5067 76° East 434 499 23,200 1,080 Climbing Memphis Center
12:42PM 34.9697 -90.3544 80° East 439 505 24,200 900 Climbing Memphis Center
12:43PM 34.9864 -90.2178 81° East 447 514 25,100 900 Climbing Memphis Center
12:44PM 35.0050 -90.0681 81° East 447 514 26,000 780 Climbing Memphis Center
12:45PM 35.0233 -89.9058 82° East 458 527 26,800 780 Climbing Memphis Center
12:46PM 35.0058 -89.7308 97° East 463 533 27,600 780 Climbing Memphis Center
12:47PM 34.9778 -89.5689 102° East 485 558 28,400 660 Climbing Memphis Center
12:48PM 34.9494 -89.4069 102° East 485 558 29,000 300 Climbing Memphis Center
12:49PM 34.9208 -89.2453 102° East 485 558 29,000  Level Memphis Center
12:50PM 34.8944 -89.0886 102° East 485 558 29,000  Level Memphis Center
12:51PM 34.8675 -88.9269 101° East 485 558 29,000  Level Memphis Center
12:52PM 34.8450 -88.7858 101° East 485 558 29,000  Level Memphis Center
12:53PM 34.8178 -88.6294 102° East 485 558 29,000  Level Memphis Center
12:55PM 34.7714 -88.3194 100° East 468 539 29,000  Level Memphis Center
12:56PM 34.7478 -88.1608 100° East 468 539 29,000  Level Memphis Center
12:57PM 34.7261 -87.9969 99° East 486 559 29,000  Level Memphis Center
12:58PM 34.7061 -87.8233 98° East 477 549 29,000  Level Memphis Center
12:59PM 34.6964 -87.6644 94° East 477 549 29,000  Level Memphis Center
01:01PM 34.6744 -87.4208 96° East 485 558 29,000  Level Atlanta Center
01:03PM 34.6306 -87.1083 100° East 478 550 29,000  Level Atlanta Center
01:04PM 34.5986 -86.9558 104° East 467 537 29,000 -60 Level Atlanta Center
01:05PM 34.5625 -86.8033 106° East 467 537 28,900 -600 Descending Atlanta Center
01:06PM 34.5156 -86.6581 111° Southeast 467 537 27,900 -1,020 Descending Atlanta Center
01:07PM 34.4686 -86.5106 111° Southeast 467 537 26,900 -1,080 Descending Atlanta Center
01:08PM 34.4233 -86.3656 111° Southeast 467 537 25,800 -1,200 Descending Atlanta Center
01:09PM 34.3781 -86.2208 111° Southeast 461 531 24,600 -900 Descending Atlanta Center
01:10PM 34.3347 -86.0789 110° East 454 522 24,000 -420 Descending Atlanta Center
01:11PM 34.2992 -85.9397 107° East 448 516 23,800 -960 Descending Atlanta Center
01:12PM 34.2764 -85.7986 101° East 437 503 22,100 -1,500 Descending Atlanta Center
01:13PM 34.2553 -85.6622 101° East 423 487 20,800 -1,500 Descending Atlanta Center
01:14PM 34.2383 -85.5239 98° East 423 487 19,200 -1,800 Descending Atlanta Center
01:15PM 34.2231 -85.3853 98° East 413 475 17,300 -1,680 Descending Atlanta Center
01:16PM 34.2014 -85.2594 102° East 395 455 15,900 -1,380 Descending Atlanta Center
01:17PM 34.1631 -85.1208 108° East 390 449 14,600 -960 Descending Atlanta Center
01:18PM 34.1078 -85.0047 120° Southeast 397 457 14,000 -300 Descending Atlanta Center
01:19PM 34.0292 -84.9186 138° Southeast 392 451 14,000 -300 Level Atlanta Center
01:20PM 33.9461 -84.8375 141° Southeast 386 444 13,400 -660 Descending Atlanta Center
01:21PM 33.8653 -84.7542 139° Southeast 386 444 12,700 -660 Descending Atlanta Center
01:22PM 33.7906 -84.6661 136° Southeast 381 438 12,100 -360 Descending Atlanta Center
01:23PM 33.7367 -84.5783 126° Southeast 347 399 12,000 -600 Descending Atlanta Center
01:24PM 33.7333 -84.4667 92° East 289 333 10,900 -1,200 Descending Atlanta TRACON
01:25PM 33.7333 -84.3833 90° East 280 322 9,600 -1,560 Descending Atlanta TRACON
01:26PM 33.7333 -84.3000 90° East 256 295 7,800 -1,800 Descending Atlanta TRACON